createdAt,value
2018-09-29T00:01:54.997Z,101963.50
2018-09-29T00:04:25.050Z,101964.62
2018-09-29T00:06:54.785Z,101967.10
2018-09-29T00:09:24.549Z,101972.24
2018-09-29T00:11:54.269Z,101969.16
2018-09-29T00:14:24.053Z,101968.73
2018-09-29T00:16:53.457Z,101968.80
2018-09-29T00:19:23.197Z,101960.73
2018-09-29T00:21:52.921Z,101968.08
2018-09-29T00:24:22.645Z,101973.27
2018-09-29T00:26:52.033Z,101970.92
2018-09-29T00:29:21.729Z,101971.33
2018-09-29T00:31:51.438Z,101983.59
2018-09-29T00:34:21.208Z,101979.25
2018-09-29T00:36:50.860Z,101984.44
2018-09-29T00:39:20.613Z,101985.66
2018-09-29T00:41:50.325Z,101991.27
2018-09-29T00:44:19.745Z,101996.03
2018-09-29T00:46:49.476Z,101989.53
2018-09-29T00:49:18.930Z,101989.89
2018-09-29T00:51:48.819Z,101993.63
2018-09-29T00:54:18.585Z,101988.80
2018-09-29T00:56:48.287Z,101993.47
2018-09-29T00:59:18.006Z,101997.09
2018-09-29T01:01:47.729Z,101993.00
2018-09-29T01:04:17.106Z,102005.15
2018-09-29T01:06:46.761Z,102008.66
2018-09-29T01:09:16.174Z,102002.99
2018-09-29T01:11:45.891Z,102007.36
2018-09-29T01:14:15.596Z,102008.66
2018-09-29T01:16:45.289Z,102002.80
2018-09-29T01:19:15.013Z,102003.10
2018-09-29T01:21:44.402Z,102005.09
2018-09-29T01:24:14.118Z,102006.31
2018-09-29T01:26:43.819Z,102001.90
2018-09-29T01:29:13.572Z,102004.95
2018-09-29T01:31:43.303Z,102005.58
2018-09-29T01:34:12.997Z,102012.02
2018-09-29T01:36:42.380Z,102010.54
2018-09-29T01:39:12.708Z,102004.26
2018-09-29T01:41:42.428Z,102010.27
2018-09-29T01:44:12.224Z,102016.40
2018-09-29T01:46:41.668Z,102012.22
2018-09-29T01:49:11.084Z,102008.30
2018-09-29T01:51:40.836Z,102007.70
2018-09-29T01:54:10.655Z,102005.50
2018-09-29T01:56:40.364Z,102004.05
2018-09-29T01:59:10.244Z,102009.28
2018-09-29T02:01:39.974Z,102010.53
2018-09-29T02:04:09.476Z,102005.66
2018-09-29T02:06:39.228Z,102011.20
2018-09-29T02:09:09.430Z,102014.59
2018-09-29T02:11:39.308Z,102012.81
2018-09-29T02:14:08.727Z,102014.02
2018-09-29T02:16:38.466Z,102014.31
2018-09-29T02:19:08.228Z,102015.70
2018-09-29T02:21:37.948Z,102015.29
2018-09-29T02:24:07.800Z,102015.61
2018-09-29T02:26:37.511Z,102026.20
2018-09-29T02:29:07.249Z,102026.19
2018-09-29T02:31:36.999Z,102020.05
2018-09-29T02:34:06.795Z,102016.39
2018-09-29T02:36:36.598Z,102016.69
2018-09-29T02:39:10.723Z,102018.68
2018-09-29T02:41:40.461Z,102020.28
2018-09-29T02:44:10.608Z,102016.18
2018-09-29T02:46:40.351Z,102018.33
2018-09-29T02:49:10.098Z,102022.07
2018-09-29T02:51:39.853Z,102017.73
2018-09-29T02:54:09.639Z,102012.20
2018-09-29T02:56:38.981Z,102017.44
2018-09-29T02:59:09.097Z,102026.52
2018-09-29T03:01:38.463Z,102029.67
2018-09-29T03:04:07.885Z,102021.66
2018-09-29T03:06:37.578Z,102022.08
2018-09-29T03:09:09.080Z,102024.54
2018-09-29T03:11:38.807Z,102031.34
2018-09-29T03:14:08.603Z,102032.75
2018-09-29T03:16:38.324Z,102036.84
2018-09-29T03:19:08.193Z,102038.11
2018-09-29T03:21:37.920Z,102034.55
2018-09-29T03:24:07.766Z,102035.81
2018-09-29T03:26:37.534Z,102041.61
2018-09-29T03:29:07.498Z,102049.89
2018-09-29T03:31:38.345Z,102052.56
2018-09-29T03:34:08.630Z,102054.81
2018-09-29T03:36:38.592Z,102057.28
2018-09-29T03:39:09.986Z,102062.73
2018-09-29T03:41:39.945Z,102060.91
2018-09-29T03:44:10.022Z,102062.44
2018-09-29T03:46:41.305Z,102063.21
2018-09-29T03:49:11.127Z,102062.86
2018-09-29T03:51:41.134Z,102067.30
2018-09-29T03:54:10.604Z,102063.38
2018-09-29T03:56:40.573Z,102068.94
2018-09-29T03:59:10.318Z,102074.80
2018-09-29T04:01:40.128Z,102075.53
2018-09-29T04:04:09.930Z,102079.94
2018-09-29T04:06:39.671Z,102084.74
2018-09-29T04:09:09.603Z,102089.68
2018-09-29T04:11:39.415Z,102089.68
2018-09-29T04:14:09.364Z,102094.85
2018-09-29T04:16:39.057Z,102090.97
2018-09-29T04:19:09.356Z,102100.58
2018-09-29T04:21:43.457Z,102103.12
2018-09-29T04:24:13.519Z,102101.55
2018-09-29T04:26:44.186Z,102097.27
2018-09-29T04:29:15.850Z,102100.70
2018-09-29T04:31:47.819Z,102106.41
2018-09-29T04:34:23.488Z,102104.42
2018-09-29T04:36:53.715Z,102105.14
2018-09-29T04:39:24.252Z,102106.55
2018-09-29T04:41:54.523Z,102107.34
2018-09-29T04:44:24.327Z,102113.89
2018-09-29T04:46:54.226Z,102117.64
2018-09-29T04:49:23.735Z,102121.57
2018-09-29T04:51:53.140Z,102119.86
2018-09-29T04:54:22.904Z,102117.45
2018-09-29T04:56:52.683Z,102124.49
2018-09-29T04:59:22.530Z,102127.41
2018-09-29T05:01:52.405Z,102128.30
2018-09-29T05:04:22.294Z,102127.56
2018-09-29T05:06:52.077Z,102124.19
2018-09-29T05:09:21.899Z,102135.39
2018-09-29T05:11:51.636Z,102120.91
2018-09-29T05:14:21.095Z,102130.16
2018-09-29T05:16:50.910Z,102126.53
2018-09-29T05:19:20.842Z,102129.68
2018-09-29T05:21:50.746Z,102129.39
2018-09-29T05:24:20.391Z,102128.30
2018-09-29T05:26:50.466Z,102125.39
2018-09-29T05:29:20.294Z,102125.56
2018-09-29T05:31:49.821Z,102123.81
2018-09-29T05:34:19.699Z,102128.52
2018-09-29T05:36:50.128Z,102130.84
2018-09-29T05:39:20.011Z,102135.98
2018-09-29T05:41:49.787Z,102138.77
2018-09-29T05:44:19.821Z,102134.94
2018-09-29T05:46:49.697Z,102134.09
2018-09-29T05:49:19.465Z,102128.84
2018-09-29T05:51:49.290Z,102131.14
2018-09-29T05:54:19.039Z,102136.88
2018-09-29T05:56:48.869Z,102143.22
2018-09-29T05:59:18.674Z,102143.25
2018-09-29T06:01:48.386Z,102146.91
2018-09-29T06:04:17.746Z,102147.19
2018-09-29T06:06:47.487Z,102146.34
2018-09-29T06:09:17.204Z,102148.59
2018-09-29T06:11:47.031Z,102150.28
2018-09-29T06:14:17.378Z,102159.19
2018-09-29T06:16:47.203Z,102167.25
2018-09-29T06:19:17.012Z,102167.78
2018-09-29T06:21:46.895Z,102175.41
2018-09-29T06:24:16.647Z,102180.44
2018-09-29T06:26:46.448Z,102185.98
2018-09-29T06:29:16.460Z,102179.66
2018-09-29T06:31:46.182Z,102185.94
2018-09-29T06:34:15.984Z,102191.08
2018-09-29T06:36:46.000Z,102197.53
2018-09-29T06:39:15.812Z,102204.74
2018-09-29T06:41:45.655Z,102205.51
2018-09-29T06:44:15.419Z,102207.80
2018-09-29T06:46:45.195Z,102213.45
2018-09-29T06:49:15.042Z,102217.44
2018-09-29T06:51:44.484Z,102216.72
2018-09-29T06:54:13.934Z,102208.58
2018-09-29T06:56:43.913Z,102213.92
2018-09-29T06:59:13.801Z,102219.52
2018-09-29T07:01:43.214Z,102220.65
2018-09-29T07:04:13.188Z,102216.16
2018-09-29T07:06:43.181Z,102221.19
2018-09-29T07:09:13.945Z,102219.75
2018-09-29T07:11:43.836Z,102219.79
2018-09-29T07:14:13.587Z,102216.27
2018-09-29T07:16:43.330Z,102220.36
2018-09-29T07:19:13.154Z,102221.75
2018-09-29T07:21:42.902Z,102222.67
2018-09-29T07:24:12.616Z,102226.41
2018-09-29T07:26:42.294Z,102228.00
2018-09-29T07:29:12.158Z,102227.78
2018-09-29T07:31:41.955Z,102223.36
2018-09-29T07:34:11.799Z,102221.03
2018-09-29T07:36:41.572Z,102226.02
2018-09-29T07:39:11.972Z,102224.49
2018-09-29T07:41:43.142Z,102230.69
2018-09-29T07:44:13.312Z,102235.34
2018-09-29T07:46:43.113Z,102234.53
2018-09-29T07:49:13.463Z,102236.48
2018-09-29T07:51:43.389Z,102233.61
2018-09-29T07:54:13.490Z,102233.17
2018-09-29T07:56:43.246Z,102228.90
2018-09-29T07:59:12.997Z,102231.28
2018-09-29T08:01:42.756Z,102229.73
2018-09-29T08:04:12.598Z,102228.84
2018-09-29T08:06:42.399Z,102231.55
2018-09-29T08:09:12.170Z,102232.14
2018-09-29T08:11:42.000Z,102225.19
2018-09-29T08:14:12.861Z,102230.53
2018-09-29T08:16:42.735Z,102228.09
2018-09-29T08:19:12.601Z,102222.39
2018-09-29T08:21:42.543Z,102211.81
2018-09-29T08:24:12.312Z,102211.88
2018-09-29T08:26:42.189Z,102210.58
2018-09-29T08:29:12.047Z,102206.68
2018-09-29T08:31:41.885Z,102206.71
2018-09-29T08:34:11.889Z,102205.48
2018-09-29T08:36:41.768Z,102209.61
2018-09-29T08:39:16.682Z,102207.06
2018-09-29T08:41:46.482Z,102203.28
2018-09-29T08:44:16.280Z,102207.59
2018-09-29T08:46:46.225Z,102211.67
2018-09-29T08:49:16.153Z,102217.47
2018-09-29T08:51:46.198Z,102211.85
2018-09-29T08:54:16.049Z,102210.98
2018-09-29T08:56:45.929Z,102206.55
2018-09-29T08:59:15.745Z,102209.78
2018-09-29T09:01:45.641Z,102213.77
2018-09-29T09:04:15.708Z,102215.09
2018-09-29T09:06:45.541Z,102212.02
2018-09-29T09:09:15.408Z,102210.33
2018-09-29T09:11:45.282Z,102211.30
2018-09-29T09:14:15.219Z,102215.69
2018-09-29T09:16:45.057Z,102208.21
2018-09-29T09:19:14.941Z,102210.45
2018-09-29T09:21:44.385Z,102212.25
2018-09-29T09:24:14.313Z,102208.75
2018-09-29T09:26:44.180Z,102207.48
2018-09-29T09:29:14.034Z,102207.08
2018-09-29T09:31:43.856Z,102220.34
2018-09-29T09:34:15.164Z,102215.46
2018-09-29T09:36:45.078Z,102214.57
2018-09-29T09:39:14.909Z,102215.90
2018-09-29T09:41:44.720Z,102219.91
2018-09-29T09:44:14.548Z,102222.09
2018-09-29T09:46:44.447Z,102217.14
2018-09-29T09:49:14.144Z,102217.41
2018-09-29T09:51:44.027Z,102221.34
2018-09-29T09:54:14.068Z,102212.88
2018-09-29T09:56:43.813Z,102224.44
2018-09-29T09:59:14.681Z,102220.55
2018-09-29T10:02:49.945Z,102227.23
2018-09-29T10:05:19.804Z,102226.34
2018-09-29T10:07:49.628Z,102215.27
2018-09-29T10:10:19.438Z,102227.27
2018-09-29T10:12:48.880Z,102222.87
2018-09-29T10:15:18.732Z,102220.20
2018-09-29T10:17:48.612Z,102218.03
2018-09-29T10:20:18.432Z,102217.97
2018-09-29T10:22:48.359Z,102212.21
2018-09-29T10:25:18.385Z,102212.58
2018-09-29T10:27:48.206Z,102208.19
2018-09-29T10:30:18.038Z,102210.05
2018-09-29T10:32:47.889Z,102202.95
2018-09-29T10:35:17.680Z,102202.09
2018-09-29T10:37:47.497Z,102199.41
2018-09-29T10:40:18.241Z,102191.84
2018-09-29T10:42:48.117Z,102192.87
2018-09-29T10:45:17.903Z,102197.24
2018-09-29T10:47:47.746Z,102194.12
2018-09-29T10:50:17.543Z,102193.27
2018-09-29T10:52:47.465Z,102188.33
2018-09-29T10:55:17.323Z,102184.85
2018-09-29T10:57:47.190Z,102192.80
2018-09-29T11:00:17.016Z,102183.39
2018-09-29T11:02:46.736Z,102195.25
2018-09-29T11:05:16.545Z,102181.06
2018-09-29T11:07:46.323Z,102189.98
2018-09-29T11:10:16.160Z,102178.91
2018-09-29T11:12:45.892Z,102180.28
2018-09-29T11:15:15.824Z,102178.86
2018-09-29T11:17:45.672Z,102172.48
2018-09-29T11:20:15.476Z,102165.87
2018-09-29T11:22:45.252Z,102162.70
2018-09-29T11:25:15.019Z,102162.63
2018-09-29T11:27:44.899Z,102160.55
2018-09-29T11:30:14.625Z,102152.84
2018-09-29T11:32:44.404Z,102142.75
2018-09-29T11:35:14.276Z,102151.14
2018-09-29T11:37:44.048Z,102142.48
2018-09-29T11:40:13.776Z,102138.09
2018-09-29T11:42:43.515Z,102137.00
2018-09-29T11:45:13.267Z,102131.51
2018-09-29T11:47:43.051Z,102125.16
2018-09-29T11:50:12.916Z,102130.17
2018-09-29T11:52:42.691Z,102126.13
2018-09-29T11:55:12.478Z,102121.76
2018-09-29T11:57:42.285Z,102121.32
2018-09-29T12:00:12.088Z,102117.41
2018-09-29T12:02:41.847Z,102111.27
2018-09-29T12:05:11.647Z,102100.55
2018-09-29T12:07:41.529Z,102097.97
2018-09-29T12:10:11.255Z,102100.77
2018-09-29T12:12:41.080Z,102091.37
2018-09-29T12:15:10.956Z,102085.23
2018-09-29T12:17:40.842Z,102079.48
2018-09-29T12:20:10.968Z,102074.18
2018-09-29T12:22:40.871Z,102070.82
2018-09-29T12:25:11.189Z,102071.28
2018-09-29T12:27:40.983Z,102068.20
2018-09-29T12:30:10.803Z,102075.69
2018-09-29T12:32:40.675Z,102064.93
2018-09-29T12:35:10.415Z,102063.23
2018-09-29T12:37:40.261Z,102061.97
2018-09-29T12:40:09.999Z,102055.31
2018-09-29T12:42:39.806Z,102060.64
2018-09-29T12:45:09.707Z,102050.02
2018-09-29T12:47:40.008Z,102054.86
2018-09-29T12:50:09.492Z,102052.91
2018-09-29T12:52:39.406Z,102049.80
2018-09-29T12:55:09.197Z,102051.33
2018-09-29T12:57:39.004Z,102041.61
2018-09-29T13:00:09.358Z,102046.02
2018-09-29T13:02:39.154Z,102034.80
2018-09-29T13:05:08.992Z,102033.98
2018-09-29T13:07:38.770Z,102028.66
2018-09-29T13:10:08.516Z,102033.98
2018-09-29T13:12:38.290Z,102030.35
2018-09-29T13:15:08.216Z,102026.00
2018-09-29T13:17:38.060Z,102022.48
2018-09-29T13:20:07.931Z,102022.02
2018-09-29T13:22:37.668Z,102021.50
2018-09-29T13:25:07.991Z,102016.11
2018-09-29T13:27:37.768Z,102012.50
2018-09-29T13:30:07.665Z,102012.86
2018-09-29T13:32:37.438Z,102013.11
2018-09-29T13:35:07.269Z,102015.06
2018-09-29T13:37:37.022Z,102006.09
2018-09-29T13:40:06.815Z,102003.08
2018-09-29T13:42:36.670Z,102002.25
2018-09-29T13:45:06.644Z,102001.41
2018-09-29T13:47:36.382Z,101994.86
2018-09-29T13:50:07.087Z,101993.67
2018-09-29T13:52:36.769Z,101996.94
2018-09-29T13:55:06.643Z,101995.72
2018-09-29T13:57:36.390Z,101987.56
2018-09-29T14:00:06.283Z,101986.16
2018-09-29T14:02:36.728Z,101981.71
2018-09-29T14:05:06.609Z,101980.94
2018-09-29T14:07:36.302Z,101982.27
2018-09-29T14:10:06.143Z,101969.86
2018-09-29T14:12:35.954Z,101972.34
2018-09-29T14:15:06.031Z,101971.53
2018-09-29T14:17:35.816Z,101966.34
2018-09-29T14:20:06.668Z,101961.97
2018-09-29T14:22:36.506Z,101962.84
2018-09-29T14:25:06.756Z,101959.73
2018-09-29T14:27:36.547Z,101963.98
2018-09-29T14:30:06.545Z,101961.70
2018-09-29T14:32:36.285Z,101963.13
2018-09-29T14:35:06.329Z,101963.41
2018-09-29T14:37:36.141Z,101954.58
2018-09-29T14:40:06.102Z,101950.25
2018-09-29T14:42:35.862Z,101949.64
2018-09-29T14:45:05.760Z,101944.33
2018-09-29T14:47:35.524Z,101944.14
2018-09-29T14:50:05.542Z,101932.74
2018-09-29T14:52:35.412Z,101934.16
2018-09-29T14:55:05.546Z,101934.22
2018-09-29T14:57:35.498Z,101935.16
2018-09-29T15:00:05.466Z,101937.33
2018-09-29T15:02:35.276Z,101932.45
2018-09-29T15:05:05.053Z,101932.45
2018-09-29T15:07:34.853Z,101925.80
2018-09-29T15:10:04.759Z,101925.19
2018-09-29T15:12:34.573Z,101923.38
2018-09-29T15:15:04.397Z,101924.27
2018-09-29T15:17:34.206Z,101922.11
2018-09-29T15:20:04.049Z,101922.17
2018-09-29T15:22:33.808Z,101921.82
2018-09-29T15:25:05.866Z,101917.92
2018-09-29T15:27:35.333Z,101912.67
2018-09-29T15:30:05.276Z,101914.44
2018-09-29T15:32:35.105Z,101913.09
2018-09-29T15:35:05.829Z,101909.87
2018-09-29T15:37:35.746Z,101906.91
2018-09-29T15:40:08.074Z,101906.47
2018-09-29T15:42:38.999Z,101906.97
2018-09-29T15:45:10.517Z,101906.54
2018-09-29T15:47:40.522Z,101902.22
2018-09-29T15:50:12.461Z,101905.31
2018-09-29T15:52:46.111Z,101903.50
2018-09-29T15:55:22.966Z,101903.61
2018-09-29T15:57:55.090Z,101897.95
2018-09-29T16:00:25.311Z,101898.89
2018-09-29T16:02:55.654Z,101897.17
2018-09-29T16:05:25.395Z,101894.03
2018-09-29T16:07:58.337Z,101890.97
2018-09-29T16:10:32.777Z,101884.80
2018-09-29T16:13:04.902Z,101886.16
2018-09-29T16:15:35.494Z,101881.34
2018-09-29T16:18:06.515Z,101884.02
2018-09-29T16:20:37.592Z,101888.00
2018-09-29T16:23:11.811Z,101881.47
2018-09-29T16:25:47.182Z,101882.80
2018-09-29T16:28:17.337Z,101875.75
2018-09-29T16:30:48.181Z,101881.09
2018-09-29T16:33:18.264Z,101886.84
2018-09-29T16:35:48.544Z,101884.19
2018-09-29T16:38:18.868Z,101887.28
2018-09-29T16:40:49.138Z,101885.94
2018-09-29T16:43:19.386Z,101890.77
2018-09-29T16:45:50.155Z,101900.45
2018-09-29T16:48:20.937Z,101905.23
2018-09-29T16:50:55.280Z,101907.81
2018-09-29T16:53:25.325Z,101911.73
2018-09-29T16:55:55.123Z,101913.45
2018-09-29T16:58:25.181Z,101913.86
2018-09-29T17:00:55.602Z,101913.78
2018-09-29T17:03:25.332Z,101915.97
2018-09-29T17:05:56.736Z,101915.04
2018-09-29T17:08:26.659Z,101914.51
2018-09-29T17:10:56.701Z,101922.34
2018-09-29T17:13:27.629Z,101931.48
2018-09-29T17:15:58.422Z,101925.71
2018-09-29T17:18:27.921Z,101927.02
2018-09-29T17:20:57.894Z,101928.27
2018-09-29T17:23:28.130Z,101927.30
2018-09-29T17:25:57.814Z,101933.34
2018-09-29T17:28:27.559Z,101934.11
2018-09-29T17:30:58.537Z,101929.19
2018-09-29T17:33:29.184Z,101928.22
2018-09-29T17:36:00.501Z,101933.40
2018-09-29T17:38:30.497Z,101934.22
2018-09-29T17:41:00.547Z,101930.20
2018-09-29T17:43:30.722Z,101929.73
2018-09-29T17:46:01.522Z,101932.71
2018-09-29T17:48:32.971Z,101931.33
2018-09-29T17:51:06.852Z,101922.88
2018-09-29T17:53:38.367Z,101927.25
2018-09-29T17:56:08.449Z,101933.02
2018-09-29T17:58:44.980Z,101934.38
2018-09-29T18:01:15.277Z,101931.70
2018-09-29T18:03:45.911Z,101928.49
2018-09-29T18:06:16.786Z,101927.99
2018-09-29T18:08:47.402Z,101925.33
2018-09-29T18:11:17.373Z,101928.37
2018-09-29T18:13:48.367Z,101926.53
2018-09-29T18:16:18.668Z,101924.66
2018-09-29T18:18:49.261Z,101926.41
2018-09-29T18:21:19.313Z,101928.66
2018-09-29T18:23:49.256Z,101929.55
2018-09-29T18:26:19.199Z,101928.66
2018-09-29T18:28:50.381Z,101926.81
2018-09-29T18:31:22.328Z,101922.40
2018-09-29T18:33:52.890Z,101927.19
2018-09-29T18:36:23.515Z,101930.66
2018-09-29T18:38:57.954Z,101926.30
2018-09-29T18:41:29.188Z,101927.99
2018-09-29T18:44:01.457Z,101927.48
2018-09-29T18:46:33.469Z,101927.38
2018-09-29T18:49:05.975Z,101925.52
2018-09-29T18:51:38.606Z,101923.33
2018-09-29T18:54:12.913Z,101923.30
2018-09-29T18:56:43.566Z,101926.90
2018-09-29T18:59:13.966Z,101922.95
2018-09-29T19:01:46.889Z,101919.91
2018-09-29T19:04:18.160Z,101924.66
2018-09-29T19:06:48.465Z,101920.69
2018-09-29T19:09:25.880Z,101923.70
2018-09-29T19:11:57.932Z,101921.92
2018-09-29T19:14:31.752Z,101917.49
2018-09-29T19:17:02.952Z,101924.95
2018-09-29T19:19:39.954Z,101909.62
2018-09-29T19:22:16.376Z,101908.33
2018-09-29T19:24:58.831Z,101903.90
2018-09-29T19:27:33.416Z,101907.42
2018-09-29T19:30:14.015Z,101897.70
2018-09-29T19:32:50.218Z,101892.41
2018-09-29T19:35:24.738Z,101885.37
2018-09-29T19:37:54.576Z,101881.31
2018-09-29T19:40:25.844Z,101888.80
2018-09-29T19:42:55.758Z,101889.69
2018-09-29T19:45:25.783Z,101890.15
2018-09-29T19:47:55.740Z,101890.09
2018-09-29T19:50:26.128Z,101886.95
2018-09-29T19:52:56.164Z,101882.97
2018-09-29T19:55:27.614Z,101877.22
2018-09-29T19:57:57.651Z,101878.94
2018-09-29T20:00:28.518Z,101875.82
2018-09-29T20:02:58.873Z,101876.22
2018-09-29T20:05:29.475Z,101875.80
2018-09-29T20:08:01.688Z,101876.62
2018-09-29T20:10:31.820Z,101876.10
2018-09-29T20:13:01.395Z,101866.41
2018-09-29T20:15:32.515Z,101866.35
2018-09-29T20:18:02.763Z,101864.55
2018-09-29T20:20:32.378Z,101862.32
2018-09-29T20:23:03.620Z,101856.59
2018-09-29T20:25:34.353Z,101858.77
2018-09-29T20:28:05.357Z,101854.36
2018-09-29T20:30:35.656Z,101854.77
2018-09-29T20:33:05.402Z,101859.56
2018-09-29T20:35:34.991Z,101862.10
2018-09-29T20:38:05.592Z,101862.92
2018-09-29T20:40:35.529Z,101860.70
2018-09-29T20:43:05.469Z,101859.81
2018-09-29T20:45:35.324Z,101856.66
2018-09-29T20:48:05.074Z,101859.31
2018-09-29T20:50:35.573Z,101851.40
2018-09-29T20:53:07.234Z,101849.63
2018-09-29T20:55:36.751Z,101846.56
2018-09-29T20:58:07.112Z,101847.42
2018-09-29T21:00:36.984Z,101845.22
2018-09-29T21:03:06.647Z,101837.27
2018-09-29T21:05:36.673Z,101836.32
2018-09-29T21:08:07.002Z,101830.61
2018-09-29T21:10:36.838Z,101829.75
2018-09-29T21:13:06.317Z,101827.55
2018-09-29T21:15:36.070Z,101822.72
2018-09-29T21:18:05.895Z,101811.69
2018-09-29T21:20:35.680Z,101820.45
2018-09-29T21:23:05.489Z,101815.14
2018-09-29T21:25:34.885Z,101813.77
2018-09-29T21:28:04.426Z,101813.30
2018-09-29T21:30:34.199Z,101801.41
2018-09-29T21:33:04.051Z,101801.81
2018-09-29T21:35:35.907Z,101800.83
2018-09-29T21:38:05.683Z,101798.59
2018-09-29T21:40:35.413Z,101790.61
2018-09-29T21:43:05.162Z,101787.56
2018-09-29T21:45:34.571Z,101791.50
2018-09-29T21:48:03.972Z,101783.61
2018-09-29T21:50:33.712Z,101786.60
2018-09-29T21:53:03.043Z,101776.92
2018-09-29T21:55:32.787Z,101780.36
2018-09-29T21:58:02.515Z,101785.58
2018-09-29T22:00:37.373Z,101780.33
2018-09-29T22:03:07.186Z,101783.34
2018-09-29T22:05:36.991Z,101780.27
2018-09-29T22:08:06.863Z,101776.68
2018-09-29T22:10:36.818Z,101760.92
2018-09-29T22:13:06.464Z,101760.04
2018-09-29T22:15:36.239Z,101760.23
2018-09-29T22:18:06.210Z,101756.23
2018-09-29T22:20:35.979Z,101752.72
2018-09-29T22:23:05.860Z,101751.05
2018-09-29T22:25:35.642Z,101749.77
2018-09-29T22:28:05.402Z,101746.55
2018-09-29T22:30:35.098Z,101743.86
2018-09-29T22:33:04.933Z,101740.34
2018-09-29T22:35:34.448Z,101740.77
2018-09-29T22:38:03.915Z,101742.08
2018-09-29T22:40:33.366Z,101734.60
2018-09-29T22:43:02.851Z,101730.70
2018-09-29T22:45:32.720Z,101724.88
2018-09-29T22:48:02.453Z,101725.67
2018-09-29T22:50:31.925Z,101723.08
2018-09-29T22:53:01.716Z,101716.41
2018-09-29T22:55:31.183Z,101722.55
2018-09-29T22:58:00.947Z,101719.89
2018-09-29T23:00:30.353Z,101715.03
2018-09-29T23:03:00.090Z,101714.93
2018-09-29T23:05:29.879Z,101715.78
2018-09-29T23:07:59.282Z,101717.48
2018-09-29T23:10:29.057Z,101715.22
2018-09-29T23:12:58.831Z,101712.17
2018-09-29T23:15:28.318Z,101710.30
2018-09-29T23:17:58.087Z,101714.20
2018-09-29T23:20:27.840Z,101708.06
2018-09-29T23:22:57.628Z,101711.99
2018-09-29T23:25:27.367Z,101708.48
2018-09-29T23:27:56.776Z,101704.13
2018-09-29T23:30:26.355Z,101701.85
2018-09-29T23:32:56.094Z,101701.32
2018-09-29T23:35:25.780Z,101697.39
2018-09-29T23:37:56.614Z,101702.20
2018-09-29T23:40:26.066Z,101699.58
2018-09-29T23:42:55.861Z,101695.50
2018-09-29T23:45:25.672Z,101692.42
2018-09-29T23:47:55.546Z,101691.95
2018-09-29T23:50:25.263Z,101698.09
2018-09-29T23:52:54.711Z,101690.58
2018-09-29T23:55:24.584Z,101686.14
2018-09-29T23:57:54.508Z,101689.61
